DOF/200812 1510Z

 METAR AND TAF INFORMATION
METAR FOR LPHR
ADDS - METARS form results

(1510 UTC 12 August 2020)
Data provider http://aviationweather.gov/metar/data/
 
METAR text: LPHR 121500Z 16008KT 9999 FEW020 25/18 Q1026
Conditions at: LPHR (HORTA/FAIAL ISLA, PT) observed 1500 UTC 12 August 2020
Temperature: 25.0°C (77°F)
Dewpoint: 18.0°C (64°F) [RH = 65%]
Pressure (altimeter): 30.30 inches Hg (1026.0 mb)
Winds: from the SSE (160 degrees) at 9 MPH (8 knots; 4.1 m/s)
Visibility: 6 or more miles (10+ km)
Ceiling: at least 12,000 feet AGL
Clouds: few clouds at 2000 feet AGL
Weather: no significant weather observed at this time

METAR text: LPHR 121430Z 18008KT 9999 FEW020 24/18 Q1026
Conditions at: LPHR (HORTA/FAIAL ISLA, PT) observed 1430 UTC 12 August 2020
Temperature: 24.0°C (75°F)
Dewpoint: 18.0°C (64°F) [RH = 69%]
Pressure (altimeter): 30.30 inches Hg (1026.0 mb)
Winds: from the S (180 degrees) at 9 MPH (8 knots; 4.1 m/s)
Visibility: 6 or more miles (10+ km)
Ceiling: at least 12,000 feet AGL
Clouds: few clouds at 2000 feet AGL
Weather: no significant weather observed at this time

Forecast for: LPHR (HORTA/FAIAL ISLA, PT)
Text: TAF LPHR 121400Z 1215/1224 VRB05KT 9999 SCT020 SCT035
Forecast period: 1500 UTC 12 August 2020 to 0000 UTC 13 August 2020
Forecast type: FROM: standard forecast or significant change
Winds: variable direction winds at 6 MPH (5 knots; 2.6 m/s)
Visibility: 6 or more miles (10+ km)
Ceiling: at least 12,000 feet AGL
Clouds: scattered clouds at 2000 feet AGL
scattered clouds at 3500 feet AGL
Weather: no significant weather forecast for this period
Text: PROB40
Forecast period: 1500 UTC 12 August 2020 to 0000 UTC 13 August 2020
Forecast type: TEMPORARY: The following changes expected for less than half the time period
Visibility: missing
Ceiling: 2000 feet AGL
Clouds: broken clouds at 2000 feet AGL
Weather: no significant weather forecast for this period

 AIRPORT MAP

 RUNWAY INFORMATION
Runway 10 Runway length 5233 ft Runway width 148 ft
Runway elevation 81 ft Runway displaced threshold 0 ft Runway heading 90
Runway 28 Runway length 5233 ft Runway width 148 ft
Runway elevation 117 ft Runway displaced threshold 0 ft Runway heading 270

 AIRPORT FREQUENCIES
Type APP Name APP Frequency 119.7 MHZ
Type TWR Name TWR Frequency 118 MHZ

 AIRPORT NEAR NAVIGATION AIDS
Type NDB Name Horta Frequency 380 KHZ
Type NDB Name Horta Frequency 360 KHZ
Type VORTAC Name Horta Frequency 112700 KHZ







No Copyright © 2020 Mickey Virtual Airlines - You can copy whatever you want, but only one can be the original.

Powered by Virtual Airlines Manager